KAPA/APA METAR and TAF weather

Enter ICAO airport designator
Station Type Date Time Source
KAPA METAR 2020/09/19 05:53 UTC NOAA

KAPA 190553Z 18007KT 10SM BKN220 20/01 A3018 RMK AO2 SLP143 T02000011 10256 20194 58004


Station Type Date Time Source
KAPA Decoded METAR 2020/09/19 05:53 UTC NOAA

DENVER CENTENNIAL AIRPORT, CO, United States (KAPA) 39-34N 104-51W 1775M
Sep 19, 2020 - 01:53 AM EDT / 2020.09.19 0553 UTC
Wind: from the S (180 degrees) at 8 MPH (7 KT):0
Visibility: 10 mile(s):0
Sky conditions: mostly cloudy
Temperature: 68.0 F (20.0 C)
Dew Point: 34.0 F (1.1 C)
Relative Humidity: 28%
Pressure (altimeter): 30.18 in. Hg (1022 hPa)
Pressure tendency: 0.01 inches (0.4 hPa) lower than three hours ago
ob: KAPA 190553Z 18007KT 10SM BKN220 20/01 A3018 RMK AO2 SLP143 T02000011 10256 20194 58004
cycle: 6

Station Type Date Time Source
KAPA TAF 2020/09/19 06:34 UTC NOAA

TAF KAPA 190532Z 1906/2006 19008KT P6SM SCT150 BKN220
FM191100 24009KT P6SM FEW140 BKN220
FM191600 VRB05KT P6SM SCT150
FM192200 32010KT P6SM SCT120 BKN170
FM200300 22008KT P6SM SCT120 BKN170

Example: see airport list